• Join FlightAware (Why Join?)
  • Login
  • US Flag 
05:31PM EDT


 

Airport Tracker/Info


-or-


 

Live Flight TrackerFlight Track Log ✈ SWA1435 ✈ 25-Apr-2013 ✈ KDAL - KSTL

Flight Track Log - Related Links

Times and Time Zones

All times are in EDT time to prevent confusion due to time zone crossing. See the SWA1435 flight status page for this flight to view local times or setup timezone preferences in your user account.

Time Position Orientation Groundspeed Altitude Reporting Facility
EDT Latitude Longitude Course Direction KTS MPH feet Rate Location/Type
07:09AM 32.8833 -96.8833 25° Northeast 182 209 2,400  Level Dallas / Fort Worth TRACON
07:10AM 32.9167 -96.9500 301° West 231 266 5,100 2,880 Climbing Dallas / Fort Worth TRACON
07:11AM 32.9667 -97.0333 306° West 288 331 8,500 3,000 Climbing Dallas / Fort Worth TRACON
07:13AM 33.1186 -96.9992 11° North 315 362 14,700 3,000 Climbing Fort Worth Center
07:14AM 33.3420 -96.5804 25° Northeast  Level FlightAware Approximate
07:14AM 33.2186 -96.9467 24° Northeast 342 394 17,800  Level Fort Worth Center
07:15AM 33.3125 -96.8964 24° Northeast 354 407 20,400 2,160 Climbing Fort Worth Center
07:16AM 33.4000 -96.8511 23° Northeast 373 429 22,200 1,920 Climbing Fort Worth Center
07:17AM 33.4997 -96.7931 26° Northeast 386 444 24,300 1,800 Climbing Fort Worth Center
07:18AM 33.6122 -96.7225 28° Northeast 398 458 25,900 1,560 Climbing Fort Worth Center
07:19AM 33.7183 -96.6544 28° Northeast 417 480 27,500 1,500 Climbing Fort Worth Center
07:20AM 33.8283 -96.5808 29° Northeast 429 494 28,900 1,260 Climbing Fort Worth Center
07:21AM 33.9428 -96.5122 26° Northeast 446 513 30,100 1,500 Climbing Fort Worth Center
07:22AM 34.0589 -96.4333 29° Northeast 466 536 32,000 1,920 Climbing Fort Worth Center
07:23AM 34.1503 -96.3594 34° Northeast 455 524 34,000 1,440 Climbing Fort Worth Center
07:24AM 34.2536 -96.2628 38° Northeast 455 524 34,900 1,320 Climbing Fort Worth Center
07:25AM 34.3611 -96.1656 37° Northeast 469 540 36,700 1,020 Climbing Fort Worth Center
07:26AM 34.4644 -96.0711 37° Northeast 474 545 37,000 120 Climbing Fort Worth Center
07:27AM 34.5678 -95.9786 36° Northeast 469 540 37,000  Level Fort Worth Center
07:28AM 34.6689 -95.8836 38° Northeast 464 534 37,000  Level Fort Worth Center
07:29AM 34.7700 -95.7933 36° Northeast 459 528 37,000  Level Fort Worth Center
07:31AM 34.9436 -95.6353 37° Northeast 452 520 37,000  Level Kansas City Center
07:31AM 35.0083 -95.5822 34° Northeast 455 524 37,000  Level Memphis Center
07:32AM 35.1128 -95.4844 37° Northeast 455 524 37,000  Level Memphis Center
07:33AM 35.2189 -95.3869 37° Northeast 455 524 37,000  Level Memphis Center
07:34AM 35.3208 -95.2911 37° Northeast 455 524 37,000  Level Memphis Center
07:35AM 35.4267 -95.1931 37° Northeast 460 529 37,000  Level Memphis Center
07:36AM 35.5308 -95.0919 38° Northeast 460 529 37,000  Level Memphis Center
07:37AM 35.6386 -94.9958 36° Northeast 466 536 37,000  Level Memphis Center
07:38AM 35.7444 -94.8944 38° Northeast 477 549 37,000  Level Memphis Center
07:39AM 35.8483 -94.7925 38° Northeast 477 549 37,000  Level Memphis Center
07:40AM 35.9561 -94.6933 37° Northeast 477 549 37,000  Level Memphis Center
07:41AM 36.0617 -94.5908 38° Northeast 477 549 37,000  Level Memphis Center
07:43AM 36.2244 -94.4358 38° Northeast 474 545 37,000  Level Kansas City Center
07:44AM 36.3281 -94.3364 38° Northeast 473 544 37,000  Level Kansas City Center
07:45AM 36.4325 -94.2364 38° Northeast 473 544 37,000  Level Kansas City Center
07:46AM 36.5358 -94.1378 37° Northeast 471 542 37,000  Level Kansas City Center
07:47AM 36.6372 -94.0392 38° Northeast 466 536 37,000  Level Kansas City Center
07:48AM 36.7375 -93.9422 38° Northeast 460 529 37,000  Level Kansas City Center
07:49AM 36.8375 -93.8456 38° Northeast 455 524 37,000  Level Kansas City Center
07:50AM 36.9358 -93.7469 39° Northeast 452 520 37,000  Level Kansas City Center
07:51AM 37.0339 -93.6511 38° Northeast 448 516 37,000  Level Kansas City Center
07:52AM 37.1311 -93.5544 38° Northeast 446 513 37,000  Level Kansas City Center
07:53AM 37.2297 -93.4581 38° Northeast 447 514 37,000  Level Kansas City Center
07:54AM 37.3308 -93.3625 37° Northeast 452 520 37,000  Level Kansas City Center
07:55AM 37.4383 -93.2206 46° Northeast 472 543 37,000  Level Kansas City Center
07:56AM 37.5264 -93.0944 49° Northeast 477 549 37,000  Level Kansas City Center
07:57AM 37.6147 -92.9664 49° Northeast 480 552 37,000  Level Kansas City Center
07:58AM 37.7014 -92.8344 50° Northeast 484 557 37,000  Level Kansas City Center
07:59AM 37.7900 -92.7019 50° Northeast 480 552 37,000  Level Kansas City Center
08:00AM 37.8758 -92.5747 49° Northeast 476 548 37,000  Level Kansas City Center
08:01AM 37.9606 -92.4467 50° Northeast 475 547 37,000  Level Kansas City Center
08:02AM 38.0444 -92.3211 50° Northeast 472 543 37,000  Level Kansas City Center
08:03AM 38.1283 -92.1950 50° Northeast 468 539 37,000 -1,440 Level Kansas City Center
08:04AM 38.2214 -92.0536 50° Northeast 475 547 34,200 -3,000 Descending Kansas City Center
08:05AM 38.3103 -91.9175 50° Northeast 493 567 30,900 -3,060 Descending Kansas City Center
08:06AM 38.3958 -91.7800 52° Northeast 494 568 27,900 -2,820 Descending Kansas City Center
08:07AM 38.4681 -91.6375 57° Northeast 481 554 25,200 -2,580 Descending Kansas City Center
08:08AM 38.5364 -91.5050 57° Northeast 454 522 22,800 -2,340 Descending Kansas City Center
08:09AM 38.6003 -91.3817 56° Northeast 424 488 20,500 -2,400 Descending Kansas City Center
08:10AM 38.6331 -91.2686 70° East 396 456 19,400 -2,160 Descending FAA TRACON SMA TRACON (SMA)
08:10AM 38.6514 -91.2336 56° Northeast 390 449 18,800 -1,800 Descending FAA TRACON SMA TRACON (SMA)
08:10AM 38.6689 -91.1989 57° Northeast 381 438 18,200 -1,860 Descending FAA TRACON SMA TRACON (SMA)
08:11AM 38.6875 -91.1533 62° Northeast 378 435 17,600 -2,280 Descending FAA TRACON SMA TRACON (SMA)
08:11AM 38.6922 -91.1108 82° East 389 448 16,700 -2,280 Descending FAA TRACON SMA TRACON (SMA)
08:11AM 38.6950 -91.0678 85° East 396 456 16,100 -2,340 Descending FAA TRACON SMA TRACON (SMA)
08:12AM 38.6964 -91.0144 88° East 394 453 15,200 -2,400 Descending FAA TRACON SMA TRACON (SMA)
08:12AM 38.6956 -90.9717 91° East 390 449 14,500 -1,920 Descending FAA TRACON SMA TRACON (SMA)
08:12AM 38.6967 -90.9303 88° East 384 442 13,900 -2,340 Descending FAA TRACON SMA TRACON (SMA)
08:13AM 38.6975 -90.8786 89° East 378 435 13,000 -2,280 Descending FAA TRACON SMA TRACON (SMA)
08:13AM 38.6981 -90.8378 89° East 375 432 12,400 -2,040 Descending FAA TRACON SMA TRACON (SMA)
08:13AM 38.6983 -90.7972 89° East 371 427 11,700 -2,280 Descending FAA TRACON SMA TRACON (SMA)
08:14AM 38.7008 -90.7478 86° East 366 421 10,900 -1,920 Descending FAA TRACON SMA TRACON (SMA)
08:14AM 38.7011 -90.7078 89° East 363 418 10,400 -1,080 Descending FAA TRACON SMA TRACON (SMA)
08:14AM 38.7011 -90.6703 90° East 350 403 10,200 -660 Descending FAA TRACON SMA TRACON (SMA)
08:15AM 38.7025 -90.6256 88° East 330 380 10,000 -900 Descending FAA TRACON SMA TRACON (SMA)
08:15AM 38.7044 -90.5914 86° East 316 364 9,600 -1,200 Descending FAA TRACON SMA TRACON (SMA)
08:15AM 38.7058 -90.5578 87° East 309 356 9,200 -1,500 Descending FAA TRACON SMA TRACON (SMA)
08:16AM 38.7075 -90.5161 87° East 305 351 8,600 -1,740 Descending FAA TRACON SMA TRACON (SMA)
08:16AM 38.7081 -90.4831 89° East 303 349 8,100 -1,200 Descending FAA TRACON SMA TRACON (SMA)
08:16AM 38.6992 -90.4519 110° East 304 350 7,800 -900 Descending FAA TRACON SMA TRACON (SMA)
08:17AM 38.6828 -90.4189 122° Southeast 290 334 7,500 -780 Descending FAA TRACON SMA TRACON (SMA)
08:17AM 38.6700 -90.3933 123° Southeast 278 320 7,300 -900 Descending FAA TRACON SMA TRACON (SMA)
08:17AM 38.6553 -90.3625 121° Southeast 266 306 6,900 -1,080 Descending FAA TRACON SMA TRACON (SMA)
08:18AM 38.6436 -90.3383 122° Southeast 261 300 6,600 -1,080 Descending FAA TRACON SMA TRACON (SMA)
08:18AM 38.6342 -90.3125 115° Southeast 262 302 6,200 -1,380 Descending FAA TRACON SMA TRACON (SMA)
08:18AM 38.6294 -90.2772 100° East 262 302 5,700 -1,200 Descending FAA TRACON SMA TRACON (SMA)
08:19AM 38.6258 -90.2494 99° East 259 298 5,400 -1,080 Descending FAA TRACON SMA TRACON (SMA)
08:19AM 38.6225 -90.2217 99° East 258 297 5,000 -1,260 Descending FAA TRACON SMA TRACON (SMA)
08:19AM 38.6181 -90.1881 100° East 251 289 4,600 -1,200 Descending FAA TRACON SMA TRACON (SMA)
08:20AM 38.6167 -90.1611 94° East 249 287 4,200 -1,080 Descending FAA TRACON SMA TRACON (SMA)
08:20AM 38.6286 -90.1461 44° Northeast 236 272 3,900 -1,440 Descending FAA TRACON SMA TRACON (SMA)
08:20AM 38.6475 -90.1469 358° North 192 221 3,300 -1,500 Descending FAA TRACON SMA TRACON (SMA)
08:21AM 38.6597 -90.1556 331° Northwest 168 193 2,900 -900 Descending FAA TRACON SMA TRACON (SMA)
08:21AM 38.6706 -90.1653 325° Northwest 157 181 2,700 -600 Descending FAA TRACON SMA TRACON (SMA)
08:21AM 38.6811 -90.1800 313° West 147 169 2,500 -780 Descending FAA TRACON SMA TRACON (SMA)
08:22AM 38.6881 -90.1919 307° West 138 159 2,200 -600 Descending FAA TRACON SMA TRACON (SMA)
08:22AM 38.6942 -90.2036 304° West 131 151 2,100 -660 Descending FAA TRACON SMA TRACON (SMA)
08:22AM 38.7003 -90.2167 301° West 115 132 1,800 -600 Descending FAA TRACON SMA TRACON (SMA)
08:23AM 38.7053 -90.2267 303° West 109 125 1,700 -480 Descending FAA TRACON SMA TRACON (SMA)
08:23AM 38.7106 -90.2372 303° West 112 129 1,500 -600 Descending FAA TRACON SMA TRACON (SMA)
08:23AM 38.7172 -90.2511 302° West 118 136 1,300 -780 Descending FAA TRACON SMA TRACON (SMA)
08:24AM 38.7231 -90.2622 304° West 121 139 1,000 -780 Descending FAA TRACON SMA TRACON (SMA)
08:24AM 38.7303 -90.2769 302° West 127 146 800 -600 Descending FAA TRACON SMA TRACON (SMA)